createdAt,value
2023-05-24T00:02:26.798Z,5.45
2023-05-24T00:05:31.052Z,5.77
2023-05-24T00:08:34.481Z,6.97
2023-05-24T00:11:35.996Z,6.93
2023-05-24T00:14:37.544Z,5.57
2023-05-24T00:17:41.243Z,5.38
2023-05-24T00:20:43.346Z,6.18
2023-05-24T00:23:45.486Z,6.13
2023-05-24T00:26:48.355Z,5.45
2023-05-24T00:29:49.899Z,5.55
2023-05-24T00:32:51.443Z,5.85
2023-05-24T00:35:56.322Z,7.05
2023-05-24T00:38:57.887Z,6.32
2023-05-24T00:41:59.851Z,4.15
2023-05-24T00:45:01.516Z,4.53
2023-05-24T00:48:04.205Z,5.30
2023-05-24T00:51:06.358Z,4.15
2023-05-24T00:54:08.040Z,4.97
2023-05-24T00:57:10.232Z,4.40
2023-05-24T01:00:12.811Z,4.50
2023-05-24T01:03:14.541Z,5.00
2023-05-24T01:06:16.344Z,4.13
2023-05-24T01:10:02.404Z,4.78
2023-05-24T01:13:30.369Z,5.03
2023-05-24T01:16:52.623Z,5.40
2023-05-24T01:20:06.720Z,4.63
2023-05-24T01:23:36.532Z,4.95
2023-05-24T01:26:48.722Z,5.93
2023-05-24T01:29:53.441Z,4.30
2023-05-24T01:32:55.408Z,5.25
2023-05-24T01:35:57.019Z,3.92
2023-05-24T01:38:58.723Z,5.50
2023-05-24T01:42:15.560Z,4.55
2023-05-24T01:48:45.108Z,3.72
2023-05-24T01:52:03.421Z,3.78
2023-05-24T01:55:07.722Z,3.60
2023-05-24T01:58:10.939Z,5.68
2023-05-24T02:01:14.085Z,3.92
2023-05-24T02:04:16.430Z,4.57
2023-05-24T02:07:19.501Z,4.15
2023-05-24T02:10:21.092Z,4.32
2023-05-24T02:13:22.657Z,5.22
2023-05-24T02:16:26.738Z,5.88
2023-05-24T02:19:28.424Z,6.38
2023-05-24T02:22:29.957Z,4.30
2023-05-24T02:25:32.575Z,4.07
2023-05-24T02:28:34.085Z,4.40
2023-05-24T02:31:35.765Z,4.82
2023-05-24T02:34:37.704Z,3.47
2023-05-24T02:37:39.249Z,3.60
2023-05-24T02:40:41.151Z,4.90
2023-05-24T02:43:43.076Z,3.83
2023-05-24T02:46:44.807Z,4.50
2023-05-24T02:49:46.433Z,4.22
2023-05-24T02:52:48.045Z,4.18
2023-05-24T02:55:51.085Z,3.53
2023-05-24T02:58:54.236Z,4.70
2023-05-24T03:01:55.928Z,5.43
2023-05-24T03:04:59.605Z,4.68
2023-05-24T03:08:01.230Z,3.88
2023-05-24T03:11:03.712Z,4.00
2023-05-24T03:14:06.550Z,4.53
2023-05-24T03:17:08.279Z,4.13
2023-05-24T03:20:11.660Z,4.07
2023-05-24T03:23:14.958Z,6.30
2023-05-24T03:26:18.617Z,4.70
2023-05-24T03:29:20.327Z,5.80
2023-05-24T03:32:22.237Z,3.53
2023-05-24T03:35:24.001Z,4.20
2023-05-24T03:38:25.514Z,4.20
2023-05-24T03:41:28.211Z,5.68
2023-05-24T03:47:34.997Z,3.97
2023-05-24T03:50:37.575Z,4.30
2023-05-24T03:53:39.187Z,4.45
2023-05-24T03:56:40.704Z,5.18
2023-05-24T03:59:43.512Z,4.28
2023-05-24T04:02:45.184Z,4.10
2023-05-24T04:05:46.903Z,4.50
2023-05-24T04:08:49.465Z,3.78
2023-05-24T04:11:51.210Z,4.68
2023-05-24T04:14:52.767Z,4.78
2023-05-24T04:17:55.654Z,5.80
2023-05-24T04:20:57.340Z,4.47
2023-05-24T04:24:01.445Z,4.68
2023-05-24T04:27:03.082Z,5.70
2023-05-24T04:30:05.580Z,4.10
2023-05-24T04:33:08.373Z,4.40
2023-05-24T04:36:11.558Z,5.35
2023-05-24T04:39:13.635Z,3.60
2023-05-24T04:42:15.626Z,4.80
2023-05-24T04:45:17.211Z,6.45
2023-05-24T04:48:19.483Z,5.15
2023-05-24T04:51:22.522Z,4.05
2023-05-24T04:54:24.418Z,4.35
2023-05-24T04:57:25.960Z,4.63
2023-05-24T05:00:27.485Z,3.70
2023-05-24T05:03:29.144Z,4.70
2023-05-24T05:06:31.656Z,4.32
2023-05-24T05:09:33.213Z,5.93
2023-05-24T05:12:34.764Z,3.92
2023-05-24T05:15:36.362Z,5.47
2023-05-24T05:18:37.898Z,4.10
2023-05-24T05:21:39.826Z,5.35
2023-05-24T05:24:41.466Z,4.47
2023-05-24T05:27:44.116Z,4.57
2023-05-24T05:30:45.715Z,4.80
2023-05-24T05:33:47.460Z,4.53
2023-05-24T05:36:49.039Z,5.55
2023-05-24T05:39:50.618Z,3.90
2023-05-24T05:42:52.194Z,4.85
2023-05-24T05:45:53.840Z,4.47
2023-05-24T05:48:55.516Z,5.32
2023-05-24T05:51:57.104Z,4.93
2023-05-24T05:55:00.160Z,5.10
2023-05-24T05:58:01.709Z,4.93
2023-05-24T06:01:03.541Z,4.88
2023-05-24T06:04:05.217Z,5.93
2023-05-24T06:07:06.824Z,5.90
2023-05-24T06:10:08.595Z,4.60
2023-05-24T06:13:10.099Z,5.97
2023-05-24T06:16:11.713Z,4.47
2023-05-24T06:19:13.747Z,5.35
2023-05-24T06:22:15.364Z,3.67
2023-05-24T06:25:19.562Z,5.00
2023-05-24T06:28:21.084Z,4.97
2023-05-24T06:31:22.649Z,4.78
2023-05-24T06:34:24.254Z,5.07
2023-05-24T06:37:25.832Z,3.95
2023-05-24T06:40:27.436Z,4.97
2023-05-24T06:43:28.978Z,7.10
2023-05-24T06:46:31.288Z,3.78
2023-05-24T06:49:32.886Z,3.05
2023-05-24T06:52:34.935Z,5.35
2023-05-24T06:55:36.502Z,6.53
2023-05-24T06:58:38.035Z,4.35
2023-05-24T07:01:40.162Z,4.68
2023-05-24T07:04:42.322Z,4.88
2023-05-24T07:07:44.130Z,5.70
2023-05-24T07:10:45.808Z,4.63
2023-05-24T07:13:47.353Z,4.40
2023-05-24T07:16:49.670Z,3.75
2023-05-24T07:19:51.556Z,4.13
2023-05-24T07:22:53.145Z,4.15
2023-05-24T07:25:54.704Z,4.65
2023-05-24T07:28:56.311Z,5.47
2023-05-24T07:31:58.054Z,4.78
2023-05-24T07:34:59.884Z,4.10
2023-05-24T07:38:01.624Z,4.47
2023-05-24T07:41:04.644Z,5.57
2023-05-24T07:44:06.383Z,4.20
2023-05-24T07:47:07.914Z,4.93
2023-05-24T07:50:10.504Z,4.68
2023-05-24T07:53:12.090Z,5.85
2023-05-24T07:56:13.678Z,9.02
2023-05-24T07:59:15.331Z,4.18
2023-05-24T08:02:16.941Z,5.82
2023-05-24T08:05:18.934Z,4.65
2023-05-24T08:08:20.455Z,3.67
2023-05-24T08:11:22.372Z,4.28
2023-05-24T08:14:23.885Z,3.53
2023-05-24T08:17:27.081Z,4.00
2023-05-24T08:20:28.780Z,4.30
2023-05-24T08:23:30.539Z,4.65
2023-05-24T08:26:32.067Z,4.38
2023-05-24T08:29:33.596Z,4.57
2023-05-24T08:32:36.134Z,4.18
2023-05-24T08:35:37.820Z,5.57
2023-05-24T08:38:39.299Z,3.33
2023-05-24T08:41:41.472Z,4.30
2023-05-24T08:44:53.226Z,3.92
2023-05-24T08:47:57.032Z,4.45
2023-05-24T08:50:59.375Z,4.30
2023-05-24T08:54:01.293Z,4.15
2023-05-24T08:57:03.721Z,4.68
2023-05-24T09:00:11.481Z,6.25
2023-05-24T09:03:13.768Z,8.27
2023-05-24T09:06:19.309Z,4.70
2023-05-24T09:09:22.170Z,4.47
2023-05-24T09:12:36.530Z,4.45
2023-05-24T09:15:40.012Z,3.63
2023-05-24T09:18:45.044Z,3.95
2023-05-24T09:21:49.459Z,5.32
2023-05-24T09:24:51.367Z,3.45
2023-05-24T09:27:53.881Z,4.60
2023-05-24T09:31:02.377Z,4.13
2023-05-24T09:34:10.986Z,4.82
2023-05-24T09:37:17.662Z,5.47
2023-05-24T09:40:20.195Z,5.80
2023-05-24T09:43:23.082Z,4.50
2023-05-24T09:46:27.050Z,5.47
2023-05-24T09:49:28.711Z,3.95
2023-05-24T09:52:30.522Z,5.35
2023-05-24T09:55:36.757Z,4.90
2023-05-24T09:58:39.372Z,3.72
2023-05-24T10:01:40.901Z,4.82
2023-05-24T10:04:42.526Z,5.05
2023-05-24T10:07:44.707Z,4.65
2023-05-24T10:10:46.885Z,5.75
2023-05-24T10:13:49.417Z,6.95
2023-05-24T10:16:51.037Z,6.22
2023-05-24T10:19:52.692Z,5.53
2023-05-24T10:23:03.126Z,4.88
2023-05-24T10:26:06.472Z,6.13
2023-05-24T10:29:16.908Z,4.00
2023-05-24T10:32:20.150Z,5.50
2023-05-24T10:35:23.226Z,5.07
2023-05-24T10:38:25.503Z,4.82
2023-05-24T10:41:27.852Z,6.25
2023-05-24T10:44:32.704Z,5.80
2023-05-24T10:47:39.067Z,4.88
2023-05-24T10:50:42.537Z,7.25
2023-05-24T10:53:44.303Z,4.35
2023-05-24T10:56:50.865Z,5.35
2023-05-24T10:59:52.446Z,6.13
2023-05-24T11:03:04.277Z,5.90
2023-05-24T11:06:06.811Z,6.22
2023-05-24T11:09:10.584Z,5.97
2023-05-24T11:12:17.750Z,4.55
2023-05-24T11:15:24.471Z,7.70
2023-05-24T11:18:27.119Z,4.25
2023-05-24T11:21:29.383Z,5.75
2023-05-24T11:24:31.054Z,4.47
2023-05-24T11:27:35.253Z,5.40
2023-05-24T11:30:49.407Z,4.57
2023-05-24T11:33:51.766Z,5.28
2023-05-24T11:36:55.315Z,5.45
2023-05-24T11:39:57.084Z,6.10
2023-05-24T11:42:58.648Z,5.22
2023-05-24T11:46:01.452Z,5.95
2023-05-24T11:49:03.702Z,3.90
2023-05-24T11:52:06.362Z,5.15
2023-05-24T11:55:11.579Z,5.68
2023-05-24T11:58:16.770Z,6.05
2023-05-24T12:01:28.273Z,4.85
2023-05-24T12:04:30.874Z,5.75
2023-05-24T12:07:32.985Z,5.13
2023-05-24T12:10:35.742Z,13.27
2023-05-24T12:13:38.078Z,12.18
2023-05-24T12:16:39.939Z,13.55
2023-05-24T12:19:43.286Z,14.55
2023-05-24T12:22:50.741Z,17.45
2023-05-24T12:25:58.729Z,14.10
2023-05-24T12:29:01.350Z,11.73
2023-05-24T12:32:03.993Z,14.88
2023-05-24T12:35:06.348Z,11.80
2023-05-24T12:38:10.526Z,13.57
2023-05-24T12:41:13.972Z,10.20
2023-05-24T12:44:15.946Z,11.43
2023-05-24T12:47:17.593Z,11.00
2023-05-24T12:50:21.834Z,9.73
2023-05-24T12:53:24.560Z,8.48
2023-05-24T12:56:27.378Z,11.25
2023-05-24T12:59:29.384Z,9.77
2023-05-24T13:02:31.309Z,10.65
2023-05-24T13:05:32.912Z,8.98
2023-05-24T13:08:34.468Z,7.95
2023-05-24T13:11:36.397Z,8.35
2023-05-24T13:14:38.074Z,6.00
2023-05-24T13:17:43.471Z,7.25
2023-05-24T13:20:45.093Z,6.85
2023-05-24T13:23:47.024Z,6.80
2023-05-24T13:26:48.753Z,6.03
2023-05-24T13:30:00.354Z,5.50
2023-05-24T13:33:03.015Z,5.18
2023-05-24T13:36:04.608Z,6.82
2023-05-24T13:42:14.650Z,7.28
2023-05-24T13:45:16.300Z,7.72
2023-05-24T13:48:18.016Z,5.43
2023-05-24T13:51:19.911Z,5.68
2023-05-24T13:54:22.688Z,6.72
2023-05-24T13:57:29.405Z,6.13
2023-05-24T14:00:36.038Z,5.57
2023-05-24T14:03:39.633Z,5.47
2023-05-24T14:06:41.253Z,4.13
2023-05-24T14:09:42.893Z,6.70
2023-05-24T14:12:44.408Z,7.18
2023-05-24T14:15:46.866Z,5.63
2023-05-24T14:18:50.163Z,5.80
2023-05-24T14:21:51.750Z,5.75
2023-05-24T14:24:53.376Z,4.70
2023-05-24T14:27:55.056Z,5.30
2023-05-24T14:30:56.593Z,4.95
2023-05-24T14:33:58.565Z,5.07
2023-05-24T14:37:00.170Z,6.65
2023-05-24T14:40:02.018Z,6.60
2023-05-24T14:43:05.078Z,5.90
2023-05-24T14:46:06.589Z,4.03
2023-05-24T14:49:08.671Z,4.85
2023-05-24T14:52:10.190Z,4.43
2023-05-24T14:55:11.727Z,6.55
2023-05-24T14:58:13.374Z,5.78
2023-05-24T15:01:14.966Z,4.55
2023-05-24T15:04:16.578Z,4.95
2023-05-24T15:07:18.230Z,5.03
2023-05-24T15:10:19.885Z,5.28
2023-05-24T15:13:22.956Z,4.70
2023-05-24T15:16:26.198Z,5.38
2023-05-24T15:19:28.052Z,9.52
2023-05-24T15:22:29.669Z,10.77
2023-05-24T15:25:31.193Z,12.32
2023-05-24T15:28:32.719Z,12.75
2023-05-24T15:31:34.300Z,11.50
2023-05-24T15:34:35.867Z,9.88
2023-05-24T15:37:37.368Z,12.35
2023-05-24T15:40:41.831Z,10.15
2023-05-24T15:43:43.854Z,12.57
2023-05-24T15:46:45.473Z,8.85
2023-05-24T15:49:47.488Z,9.48
2023-05-24T15:52:49.055Z,11.60
2023-05-24T15:55:50.692Z,9.70
2023-05-24T15:58:52.779Z,10.20
2023-05-24T16:01:55.084Z,9.70
2023-05-24T16:04:57.393Z,9.70
2023-05-24T16:07:58.899Z,11.00
2023-05-24T16:11:00.513Z,8.25
2023-05-24T16:14:03.366Z,10.63
2023-05-24T16:17:08.449Z,8.40
2023-05-24T16:20:10.922Z,10.27
2023-05-24T16:23:12.498Z,9.95
2023-05-24T16:26:14.048Z,10.90
2023-05-24T16:29:17.931Z,10.50
2023-05-24T16:32:19.546Z,10.77
2023-05-24T16:35:21.119Z,9.13
2023-05-24T16:38:23.789Z,10.70
2023-05-24T16:41:25.378Z,10.45
2023-05-24T16:44:27.082Z,8.52
2023-05-24T16:47:29.938Z,8.90
2023-05-24T16:50:31.795Z,8.88
2023-05-24T16:53:33.338Z,10.27
2023-05-24T16:56:36.898Z,8.40
2023-05-24T16:59:38.887Z,10.25
2023-05-24T17:02:40.580Z,11.98
2023-05-24T17:05:42.599Z,13.27
2023-05-24T17:08:44.132Z,9.43
2023-05-24T17:11:45.864Z,12.23
2023-05-24T17:14:47.430Z,9.77
2023-05-24T17:17:49.066Z,11.32
2023-05-24T17:20:51.233Z,10.38
2023-05-24T17:23:52.801Z,10.30
2023-05-24T17:26:54.986Z,10.60
2023-05-24T17:29:56.832Z,10.23
2023-05-24T17:32:58.395Z,10.57
2023-05-24T17:36:04.110Z,13.20
2023-05-24T17:39:06.653Z,9.90
2023-05-24T17:42:08.175Z,12.90
2023-05-24T17:45:10.294Z,8.65
2023-05-24T17:48:11.984Z,12.77
2023-05-24T17:51:14.678Z,11.30
2023-05-24T17:54:16.242Z,9.93
2023-05-24T17:57:17.776Z,13.10
2023-05-24T18:00:19.653Z,12.43
2023-05-24T18:03:21.135Z,13.70
2023-05-24T18:06:22.704Z,13.18
2023-05-24T18:09:24.299Z,11.07
2023-05-24T18:12:26.259Z,13.63
2023-05-24T18:15:28.613Z,13.75
2023-05-24T18:18:30.270Z,12.52
2023-05-24T18:21:32.416Z,11.93
2023-05-24T18:24:34.074Z,12.18
2023-05-24T18:27:35.678Z,12.50
2023-05-24T18:30:37.417Z,13.73
2023-05-24T18:33:39.341Z,12.40
2023-05-24T18:36:40.891Z,15.73
2023-05-24T18:39:42.463Z,14.43
2023-05-24T18:42:46.056Z,12.60
2023-05-24T18:45:47.667Z,11.43
2023-05-24T18:48:49.250Z,11.75
2023-05-24T18:51:50.755Z,11.48
2023-05-24T18:54:54.832Z,8.15
2023-05-24T18:57:56.394Z,10.68
2023-05-24T19:00:57.983Z,9.68
2023-05-24T19:03:59.570Z,10.05
2023-05-24T19:07:01.087Z,11.68
2023-05-24T19:10:03.057Z,9.98
2023-05-24T19:13:06.140Z,10.02
2023-05-24T19:16:07.817Z,10.30
2023-05-24T19:19:09.383Z,9.18
2023-05-24T19:22:10.965Z,7.43
2023-05-24T19:25:12.645Z,9.55
2023-05-24T19:28:14.140Z,11.68
2023-05-24T19:31:17.695Z,10.38
2023-05-24T19:34:19.568Z,6.63
2023-05-24T19:37:21.170Z,9.10
2023-05-24T19:40:23.711Z,8.73
2023-05-24T19:43:25.364Z,8.40
2023-05-24T19:46:27.393Z,7.47
2023-05-24T19:49:28.944Z,5.93
2023-05-24T19:52:30.482Z,8.43
2023-05-24T19:55:32.535Z,6.07
2023-05-24T19:58:34.023Z,7.35
2023-05-24T20:01:37.040Z,7.38
2023-05-24T20:04:41.835Z,7.32
2023-05-24T20:07:43.504Z,8.25
2023-05-24T20:10:45.087Z,7.57
2023-05-24T20:13:46.584Z,5.93
2023-05-24T20:16:48.217Z,6.78
2023-05-24T20:19:50.084Z,6.63
2023-05-24T20:22:51.891Z,5.35
2023-05-24T20:25:55.528Z,8.43
2023-05-24T20:28:57.013Z,6.15
2023-05-24T20:31:58.602Z,7.03
2023-05-24T20:35:00.533Z,8.13
2023-05-24T20:38:02.546Z,5.85
2023-05-24T20:41:04.252Z,6.50
2023-05-24T20:44:05.826Z,7.43
2023-05-24T20:47:07.346Z,6.93
2023-05-24T20:50:09.020Z,6.03
2023-05-24T20:53:10.554Z,5.65
2023-05-24T20:56:12.124Z,5.85
2023-05-24T20:59:13.695Z,6.57
2023-05-24T21:02:15.335Z,5.63
2023-05-24T21:05:16.904Z,5.10
2023-05-24T21:08:18.543Z,7.38
2023-05-24T21:11:20.165Z,6.15
2023-05-24T21:14:21.823Z,6.65
2023-05-24T21:17:23.378Z,6.03
2023-05-24T21:20:25.085Z,6.65
2023-05-24T21:23:26.654Z,6.57
2023-05-24T21:26:28.179Z,5.63
2023-05-24T21:29:29.691Z,5.88
2023-05-24T21:32:31.249Z,4.50
2023-05-24T21:35:32.872Z,4.95
2023-05-24T21:38:34.381Z,5.72
2023-05-24T21:41:37.636Z,5.47
2023-05-24T21:44:39.142Z,5.80
2023-05-24T21:47:40.715Z,4.95
2023-05-24T21:50:42.285Z,5.57
2023-05-24T21:53:43.805Z,5.82
2023-05-24T21:56:46.239Z,5.65
2023-05-24T21:59:47.966Z,6.15
2023-05-24T22:02:49.646Z,4.43
2023-05-24T22:05:51.333Z,5.45
2023-05-24T22:08:52.910Z,5.40
2023-05-24T22:11:54.458Z,5.10
2023-05-24T22:14:56.174Z,4.43
2023-05-24T22:17:58.776Z,4.97
2023-05-24T22:21:02.176Z,4.93
2023-05-24T22:24:03.743Z,4.18
2023-05-24T22:27:05.340Z,4.57
2023-05-24T22:30:07.685Z,5.13
2023-05-24T22:33:09.255Z,5.53
2023-05-24T22:36:12.305Z,5.30
2023-05-24T22:39:13.940Z,5.28
2023-05-24T22:42:15.610Z,5.10
2023-05-24T22:45:18.430Z,5.10
2023-05-24T22:48:21.913Z,5.07
2023-05-24T22:51:24.352Z,4.53
2023-05-24T22:54:25.919Z,4.25
2023-05-24T22:57:27.593Z,3.90
2023-05-24T23:00:29.148Z,5.15
2023-05-24T23:03:31.466Z,6.18
2023-05-24T23:06:33.179Z,4.43
2023-05-24T23:09:35.260Z,4.13
2023-05-24T23:12:37.024Z,4.72
2023-05-24T23:15:38.960Z,4.63
2023-05-24T23:18:42.929Z,5.25
2023-05-24T23:21:44.469Z,4.72
2023-05-24T23:24:47.396Z,4.53
2023-05-24T23:27:48.909Z,4.72
2023-05-24T23:30:50.453Z,4.80
2023-05-24T23:33:52.251Z,5.43
2023-05-24T23:36:53.870Z,5.22
2023-05-24T23:39:55.451Z,4.65
2023-05-24T23:42:56.986Z,4.68
2023-05-24T23:45:58.517Z,4.53
2023-05-24T23:49:00.342Z,5.10
2023-05-24T23:52:01.906Z,4.93
2023-05-24T23:55:03.727Z,4.55
2023-05-24T23:58:05.249Z,4.88
